sensor_id;sensor_type;location;lat;lon;timestamp;pressure;altitude;pressure_sealevel;temperature;humidity
18790;BME280;9523;42.650;23.386;2023-05-10T00:01:39;94906.47;;;9.49;100.00
18790;BME280;9523;42.650;23.386;2023-05-10T00:04:05;94924.34;;;9.52;100.00
18790;BME280;9523;42.650;23.386;2023-05-10T00:06:33;94924.88;;;9.54;100.00
18790;BME280;9523;42.650;23.386;2023-05-10T00:09:00;94922.50;;;9.53;100.00
18790;BME280;9523;42.650;23.386;2023-05-10T00:11:26;94915.16;;;9.50;100.00
18790;BME280;9523;42.650;23.386;2023-05-10T00:13:55;94915.41;;;9.48;100.00
18790;BME280;9523;42.650;23.386;2023-05-10T00:16:21;94917.25;;;9.48;100.00
18790;BME280;9523;42.650;23.386;2023-05-10T00:18:48;94906.25;;;9.40;100.00
18790;BME280;9523;42.650;23.386;2023-05-10T00:21:15;94912.84;;;9.38;100.00
18790;BME280;9523;42.650;23.386;2023-05-10T00:23:45;94916.28;;;9.33;100.00
18790;BME280;9523;42.650;23.386;2023-05-10T00:26:11;94913.94;;;9.32;100.00
18790;BME280;9523;42.650;23.386;2023-05-10T00:28:38;94900.81;;;9.27;100.00
18790;BME280;9523;42.650;23.386;2023-05-10T00:31:09;94908.16;;;9.30;100.00
18790;BME280;9523;42.650;23.386;2023-05-10T00:33:36;94903.69;;;9.30;100.00
18790;BME280;9523;42.650;23.386;2023-05-10T00:36:03;94902.13;;;9.24;100.00
18790;BME280;9523;42.650;23.386;2023-05-10T00:38:33;94906.06;;;9.27;100.00
18790;BME280;9523;42.650;23.386;2023-05-10T00:40:59;94901.06;;;9.30;100.00
18790;BME280;9523;42.650;23.386;2023-05-10T00:43:26;94880.03;;;9.20;100.00
18790;BME280;9523;42.650;23.386;2023-05-10T00:45:53;94897.97;;;9.18;100.00
18790;BME280;9523;42.650;23.386;2023-05-10T00:48:22;94897.16;;;9.18;100.00
18790;BME280;9523;42.650;23.386;2023-05-10T00:50:49;94894.50;;;9.23;100.00
18790;BME280;9523;42.650;23.386;2023-05-10T00:53:16;94891.13;;;9.17;100.00
18790;BME280;9523;42.650;23.386;2023-05-10T00:55:43;94901.88;;;9.21;100.00
18790;BME280;9523;42.650;23.386;2023-05-10T00:58:10;94903.25;;;9.13;100.00
18790;BME280;9523;42.650;23.386;2023-05-10T01:00:38;94901.94;;;9.11;100.00
18790;BME280;9523;42.650;23.386;2023-05-10T01:03:08;94890.06;;;9.13;100.00
18790;BME280;9523;42.650;23.386;2023-05-10T01:05:36;94892.41;;;9.20;100.00
18790;BME280;9523;42.650;23.386;2023-05-10T01:08:03;94904.03;;;9.14;100.00
18790;BME280;9523;42.650;23.386;2023-05-10T01:10:30;94888.25;;;9.09;100.00
18790;BME280;9523;42.650;23.386;2023-05-10T01:12:59;94890.88;;;9.09;100.00
18790;BME280;9523;42.650;23.386;2023-05-10T01:15:26;94894.06;;;9.06;100.00
18790;BME280;9523;42.650;23.386;2023-05-10T01:17:53;94886.16;;;9.06;100.00
18790;BME280;9523;42.650;23.386;2023-05-10T01:20:23;94888.31;;;8.99;100.00
18790;BME280;9523;42.650;23.386;2023-05-10T01:23:10;94887.28;;;9.00;100.00
18790;BME280;9523;42.650;23.386;2023-05-10T01:26:07;94888.88;;;8.95;100.00
18790;BME280;9523;42.650;23.386;2023-05-10T01:29:03;94894.88;;;8.96;100.00
18790;BME280;9523;42.650;23.386;2023-05-10T01:32:04;94882.59;;;8.86;100.00
18790;BME280;9523;42.650;23.386;2023-05-10T01:34:40;94875.75;;;8.85;100.00
18790;BME280;9523;42.650;23.386;2023-05-10T01:37:12;94879.16;;;8.86;100.00
18790;BME280;9523;42.650;23.386;2023-05-10T01:39:44;94880.78;;;8.77;100.00
18790;BME280;9523;42.650;23.386;2023-05-10T01:42:17;94874.16;;;8.84;100.00
18790;BME280;9523;42.650;23.386;2023-05-10T01:44:56;94865.22;;;8.80;100.00
18790;BME280;9523;42.650;23.386;2023-05-10T01:47:29;94871.53;;;8.84;100.00
18790;BME280;9523;42.650;23.386;2023-05-10T01:50:01;94878.63;;;8.84;100.00
18790;BME280;9523;42.650;23.386;2023-05-10T01:52:32;94876.50;;;8.91;100.00
18790;BME280;9523;42.650;23.386;2023-05-10T01:55:02;94869.97;;;8.83;100.00
18790;BME280;9523;42.650;23.386;2023-05-10T01:57:33;94873.16;;;8.75;100.00
18790;BME280;9523;42.650;23.386;2023-05-10T02:00:01;94870.00;;;8.73;100.00
18790;BME280;9523;42.650;23.386;2023-05-10T02:02:33;94868.78;;;8.56;100.00
18790;BME280;9523;42.650;23.386;2023-05-10T02:05:04;94866.88;;;8.61;100.00
18790;BME280;9523;42.650;23.386;2023-05-10T02:07:34;94872.69;;;8.53;100.00
18790;BME280;9523;42.650;23.386;2023-05-10T02:10:02;94861.69;;;8.41;100.00
18790;BME280;9523;42.650;23.386;2023-05-10T02:12:32;94871.47;;;8.30;100.00
18790;BME280;9523;42.650;23.386;2023-05-10T02:15:03;94879.31;;;8.20;100.00
18790;BME280;9523;42.650;23.386;2023-05-10T02:17:32;94877.00;;;8.03;100.00
18790;BME280;9523;42.650;23.386;2023-05-10T02:20:01;94875.41;;;7.97;100.00
18790;BME280;9523;42.650;23.386;2023-05-10T02:22:29;94874.38;;;7.88;100.00
18790;BME280;9523;42.650;23.386;2023-05-10T02:24:57;94872.28;;;7.80;100.00
18790;BME280;9523;42.650;23.386;2023-05-10T02:27:25;94870.72;;;7.74;100.00
18790;BME280;9523;42.650;23.386;2023-05-10T02:29:54;94875.69;;;7.66;100.00
18790;BME280;9523;42.650;23.386;2023-05-10T02:32:21;94878.59;;;7.59;100.00
18790;BME280;9523;42.650;23.386;2023-05-10T02:34:51;94870.97;;;7.47;100.00
18790;BME280;9523;42.650;23.386;2023-05-10T02:37:19;94881.19;;;7.39;100.00
18790;BME280;9523;42.650;23.386;2023-05-10T02:39:47;94881.19;;;7.39;100.00
18790;BME280;9523;42.650;23.386;2023-05-10T02:42:17;94880.94;;;7.35;100.00
18790;BME280;9523;42.650;23.386;2023-05-10T02:44:48;94873.28;;;7.29;100.00
18790;BME280;9523;42.650;23.386;2023-05-10T02:47:15;94869.63;;;7.30;100.00
18790;BME280;9523;42.650;23.386;2023-05-10T02:49:42;94874.88;;;7.30;100.00
18790;BME280;9523;42.650;23.386;2023-05-10T02:52:12;94877.47;;;7.25;100.00
18790;BME280;9523;42.650;23.386;2023-05-10T02:54:44;94865.94;;;7.26;100.00
18790;BME280;9523;42.650;23.386;2023-05-10T02:57:15;94871.75;;;7.28;100.00
18790;BME280;9523;42.650;23.386;2023-05-10T02:59:44;94864.88;;;7.22;100.00
18790;BME280;9523;42.650;23.386;2023-05-10T03:02:12;94875.94;;;7.24;100.00
18790;BME280;9523;42.650;23.386;2023-05-10T03:04:39;94869.06;;;7.18;100.00
18790;BME280;9523;42.650;23.386;2023-05-10T03:07:06;94867.78;;;7.20;100.00
18790;BME280;9523;42.650;23.386;2023-05-10T03:09:35;94869.84;;;7.13;100.00
18790;BME280;9523;42.650;23.386;2023-05-10T03:12:07;94865.94;;;7.16;100.00
18790;BME280;9523;42.650;23.386;2023-05-10T03:14:45;94873.28;;;7.19;100.00
18790;BME280;9523;42.650;23.386;2023-05-10T03:17:19;94867.25;;;7.23;100.00
18790;BME280;9523;42.650;23.386;2023-05-10T03:19:53;94875.66;;;7.30;100.00
18790;BME280;9523;42.650;23.386;2023-05-10T03:22:24;94874.84;;;7.25;100.00
18790;BME280;9523;42.650;23.386;2023-05-10T03:24:56;94874.38;;;7.28;100.00
18790;BME280;9523;42.650;23.386;2023-05-10T03:27:25;94886.72;;;7.42;100.00
18790;BME280;9523;42.650;23.386;2023-05-10T03:29:53;94895.09;;;7.44;100.00
18790;BME280;9523;42.650;23.386;2023-05-10T03:32:21;94881.72;;;7.46;100.00
18790;BME280;9523;42.650;23.386;2023-05-10T03:34:49;94883.81;;;7.49;100.00
18790;BME280;9523;42.650;23.386;2023-05-10T03:37:15;94888.03;;;7.55;100.00
18790;BME280;9523;42.650;23.386;2023-05-10T03:39:42;94873.88;;;7.56;100.00
18790;BME280;9523;42.650;23.386;2023-05-10T03:42:10;94883.84;;;7.64;100.00
18790;BME280;9523;42.650;23.386;2023-05-10T03:44:38;94883.34;;;7.72;100.00
18790;BME280;9523;42.650;23.386;2023-05-10T03:47:05;94889.63;;;7.71;100.00
18790;BME280;9523;42.650;23.386;2023-05-10T03:49:32;94878.59;;;7.74;100.00
18790;BME280;9523;42.650;23.386;2023-05-10T03:51:58;94890.69;;;7.75;100.00
18790;BME280;9523;42.650;23.386;2023-05-10T03:54:25;94865.47;;;7.59;100.00
18790;BME280;9523;42.650;23.386;2023-05-10T03:56:52;94894.06;;;7.81;100.00
18790;BME280;9523;42.650;23.386;2023-05-10T03:59:20;94885.94;;;7.82;100.00
18790;BME280;9523;42.650;23.386;2023-05-10T04:01:47;94887.78;;;7.82;100.00
18790;BME280;9523;42.650;23.386;2023-05-10T04:04:14;94883.81;;;7.84;100.00
18790;BME280;9523;42.650;23.386;2023-05-10T04:06:46;94899.59;;;7.84;100.00
18790;BME280;9523;42.650;23.386;2023-05-10T04:09:16;94880.72;;;7.72;100.00
18790;BME280;9523;42.650;23.386;2023-05-10T04:11:43;94909.06;;;7.90;100.00
18790;BME280;9523;42.650;23.386;2023-05-10T04:14:09;94894.63;;;7.88;100.00
18790;BME280;9523;42.650;23.386;2023-05-10T04:16:38;94903.28;;;7.93;100.00
18790;BME280;9523;42.650;23.386;2023-05-10T04:19:04;94896.97;;;7.89;100.00
18790;BME280;9523;42.650;23.386;2023-05-10T04:21:31;94899.06;;;7.97;100.00
18790;BME280;9523;42.650;23.386;2023-05-10T04:23:58;94908.25;;;8.05;100.00
18790;BME280;9523;42.650;23.386;2023-05-10T04:26:25;94903.78;;;8.06;100.00
18790;BME280;9523;42.650;23.386;2023-05-10T04:28:52;94904.06;;;8.04;100.00
18790;BME280;9523;42.650;23.386;2023-05-10T04:31:18;-20630.16;;;8.16;100.00
18790;BME280;9523;42.650;23.386;2023-05-10T04:33:47;94900.09;;;8.22;100.00
18790;BME280;9523;42.650;23.386;2023-05-10T04:36:14;94907.72;;;8.13;100.00
18790;BME280;9523;42.650;23.386;2023-05-10T04:38:40;94888.81;;;8.06;100.00
18790;BME280;9523;42.650;23.386;2023-05-10T04:41:09;94909.03;;;8.21;100.00
18790;BME280;9523;42.650;23.386;2023-05-10T04:43:37;94907.19;;;8.21;100.00
18790;BME280;9523;42.650;23.386;2023-05-10T04:46:04;94906.13;;;8.27;100.00
18790;BME280;9523;42.650;23.386;2023-05-10T04:48:32;94895.13;;;8.15;100.00
18790;BME280;9523;42.650;23.386;2023-05-10T04:51:00;94906.41;;;8.26;100.00
18790;BME280;9523;42.650;23.386;2023-05-10T04:53:28;94911.66;;;8.26;100.00
18790;BME280;9523;42.650;23.386;2023-05-10T04:55:56;94902.22;;;8.15;100.00
18790;BME280;9523;42.650;23.386;2023-05-10T04:58:22;94900.88;;;8.17;100.00
18790;BME280;9523;42.650;23.386;2023-05-10T05:00:49;94881.44;;;8.13;100.00
18790;BME280;9523;42.650;23.386;2023-05-10T05:03:16;94910.31;;;8.28;100.00
18790;BME280;9523;42.650;23.386;2023-05-10T05:05:43;94904.31;;;8.33;100.00
18790;BME280;9523;42.650;23.386;2023-05-10T05:08:11;94905.88;;;8.34;100.00
18790;BME280;9523;42.650;23.386;2023-05-10T05:10:38;94905.09;;;8.38;100.00
18790;BME280;9523;42.650;23.386;2023-05-10T05:13:05;94876.44;;;8.17;100.00
18790;BME280;9523;42.650;23.386;2023-05-10T05:15:32;94908.47;;;8.49;100.00
18790;BME280;9523;42.650;23.386;2023-05-10T05:17:59;94915.84;;;8.47;100.00
18790;BME280;9523;42.650;23.386;2023-05-10T05:20:26;94907.44;;;8.50;100.00
18790;BME280;9523;42.650;23.386;2023-05-10T05:22:52;94912.94;;;8.54;100.00
18790;BME280;9523;42.650;23.386;2023-05-10T05:25:21;94919.25;;;8.58;100.00
18790;BME280;9523;42.650;23.386;2023-05-10T05:27:47;94916.34;;;8.59;100.00
18790;BME280;9523;42.650;23.386;2023-05-10T05:30:14;94919.78;;;8.60;100.00
18790;BME280;9523;42.650;23.386;2023-05-10T05:32:41;94916.34;;;8.59;100.00
18790;BME280;9523;42.650;23.386;2023-05-10T05:35:08;94925.78;;;8.65;100.00
18790;BME280;9523;42.650;23.386;2023-05-10T05:37:35;94931.59;;;8.62;100.00
18790;BME280;9523;42.650;23.386;2023-05-10T05:40:03;94926.88;;;8.59;100.00
18790;BME280;9523;42.650;23.386;2023-05-10T05:42:31;94920.31;;;8.52;100.00
18790;BME280;9523;42.650;23.386;2023-05-10T05:44:58;94924.78;;;8.51;100.00
18790;BME280;9523;42.650;23.386;2023-05-10T05:47:25;94929.00;;;8.42;100.00
18790;BME280;9523;42.650;23.386;2023-05-10T05:49:52;94921.13;;;8.47;100.00
18790;BME280;9523;42.650;23.386;2023-05-10T05:52:19;94919.53;;;8.41;100.00
18790;BME280;9523;42.650;23.386;2023-05-10T05:54:46;94927.41;;;8.46;100.00
18790;BME280;9523;42.650;23.386;2023-05-10T05:57:13;94933.97;;;8.48;100.00
18790;BME280;9523;42.650;23.386;2023-05-10T05:59:41;94936.34;;;8.45;100.00
18790;BME280;9523;42.650;23.386;2023-05-10T06:02:09;94929.78;;;8.47;100.00
18790;BME280;9523;42.650;23.386;2023-05-10T06:04:36;94932.13;;;8.49;100.00
18790;BME280;9523;42.650;23.386;2023-05-10T06:07:03;94933.47;;;8.46;100.00
18790;BME280;9523;42.650;23.386;2023-05-10T06:09:30;94937.16;;;8.45;100.00
18790;BME280;9523;42.650;23.386;2023-05-10T06:12:00;94932.13;;;8.44;100.00
18790;BME280;9523;42.650;23.386;2023-05-10T06:14:27;94942.66;;;8.49;100.00
18790;BME280;9523;42.650;23.386;2023-05-10T06:16:55;94932.69;;;8.51;100.00
18790;BME280;9523;42.650;23.386;2023-05-10T06:19:22;94936.31;;;8.60;100.00
18790;BME280;9523;42.650;23.386;2023-05-10T06:21:48;94936.34;;;8.55;100.00
18790;BME280;9523;42.650;23.386;2023-05-10T06:24:15;94946.84;;;8.65;100.00
18790;BME280;9523;42.650;23.386;2023-05-10T06:26:42;94945.78;;;8.71;100.00
18790;BME280;9523;42.650;23.386;2023-05-10T06:29:09;94945.00;;;8.71;100.00
18790;BME280;9523;42.650;23.386;2023-05-10T06:31:35;94946.53;;;8.82;100.00
18790;BME280;9523;42.650;23.386;2023-05-10T06:34:04;94952.84;;;8.86;100.00
18790;BME280;9523;42.650;23.386;2023-05-10T06:36:31;94953.69;;;8.71;100.00
18790;BME280;9523;42.650;23.386;2023-05-10T06:38:58;94955.00;;;8.64;100.00
18790;BME280;9523;42.650;23.386;2023-05-10T06:41:25;94957.59;;;8.74;100.00
18790;BME280;9523;42.650;23.386;2023-05-10T06:43:52;94926.59;;;8.66;100.00
18790;BME280;9523;42.650;23.386;2023-05-10T06:46:18;94953.63;;;8.81;100.00
18790;BME280;9523;42.650;23.386;2023-05-10T06:48:45;94948.38;;;8.81;100.00
18790;BME280;9523;42.650;23.386;2023-05-10T06:51:13;94950.47;;;8.84;100.00
18790;BME280;9523;42.650;23.386;2023-05-10T06:53:40;94948.06;;;8.93;100.00
18790;BME280;9523;42.650;23.386;2023-05-10T06:56:07;94951.78;;;8.87;100.00
18790;BME280;9523;42.650;23.386;2023-05-10T06:58:34;94945.19;;;8.94;100.00
18790;BME280;9523;42.650;23.386;2023-05-10T07:01:04;94954.13;;;8.88;100.00
18790;BME280;9523;42.650;23.386;2023-05-10T07:03:31;94948.38;;;8.86;100.00
18790;BME280;9523;42.650;23.386;2023-05-10T07:06:01;94952.28;;;8.84;100.00
18790;BME280;9523;42.650;23.386;2023-05-10T07:08:31;94952.56;;;8.87;100.00
18790;BME280;9523;42.650;23.386;2023-05-10T07:11:02;94947.59;;;8.76;100.00
18790;BME280;9523;42.650;23.386;2023-05-10T07:13:29;94940.53;;;8.71;100.00
18790;BME280;9523;42.650;23.386;2023-05-10T07:15:56;94956.81;;;8.83;100.00
18790;BME280;9523;42.650;23.386;2023-05-10T07:18:23;94960.97;;;8.94;100.00
18790;BME280;9523;42.650;23.386;2023-05-10T07:20:50;94950.44;;;8.94;100.00
18790;BME280;9523;42.650;23.386;2023-05-10T07:23:17;94957.53;;;8.99;100.00
18790;BME280;9523;42.650;23.386;2023-05-10T07:25:46;94947.53;;;8.96;100.00
18790;BME280;9523;42.650;23.386;2023-05-10T07:28:14;94930.44;;;8.88;100.00
18790;BME280;9523;42.650;23.386;2023-05-10T07:30:42;94959.84;;;9.11;100.00
18790;BME280;9523;42.650;23.386;2023-05-10T07:33:10;94962.19;;;9.12;100.00
18790;BME280;9523;42.650;23.386;2023-05-10T07:35:37;94960.34;;;9.13;100.00
18790;BME280;9523;42.650;23.386;2023-05-10T07:38:03;94967.44;;;9.17;100.00
18790;BME280;9523;42.650;23.386;2023-05-10T07:40:30;94970.38;;;9.11;100.00
18790;BME280;9523;42.650;23.386;2023-05-10T07:42:59;94973.75;;;9.21;100.00
18790;BME280;9523;42.650;23.386;2023-05-10T07:45:27;94966.16;;;9.15;100.00
18790;BME280;9523;42.650;23.386;2023-05-10T07:47:54;94974.53;;;9.27;100.00
18790;BME280;9523;42.650;23.386;2023-05-10T07:50:20;94968.22;;;9.23;100.00
18790;BME280;9523;42.650;23.386;2023-05-10T07:52:47;94972.69;;;9.22;100.00
18790;BME280;9523;42.650;23.386;2023-05-10T07:55:14;94975.31;;;9.27;100.00
18790;BME280;9523;42.650;23.386;2023-05-10T07:57:41;94973.44;;;9.33;100.00
18790;BME280;9523;42.650;23.386;2023-05-10T08:00:12;94980.78;;;9.41;100.00
18790;BME280;9523;42.650;23.386;2023-05-10T08:02:40;94982.91;;;9.39;100.00
18790;BME280;9523;42.650;23.386;2023-05-10T08:05:07;94979.19;;;9.40;100.00
18790;BME280;9523;42.650;23.386;2023-05-10T08:07:35;94983.38;;;9.46;100.00
18790;BME280;9523;42.650;23.386;2023-05-10T08:10:02;94984.44;;;9.50;100.00
18790;BME280;9523;42.650;23.386;2023-05-10T08:12:29;94979.72;;;9.47;100.00
18790;BME280;9523;42.650;23.386;2023-05-10T08:14:56;94977.25;;;9.56;100.00
18790;BME280;9523;42.650;23.386;2023-05-10T08:17:24;94980.75;;;9.51;100.00
18790;BME280;9523;42.650;23.386;2023-05-10T08:19:51;94983.56;;;9.60;100.00
18790;BME280;9523;42.650;23.386;2023-05-10T08:22:18;94979.06;;;9.65;100.00
18790;BME280;9523;42.650;23.386;2023-05-10T08:24:45;94989.09;;;9.63;100.00
18790;BME280;9523;42.650;23.386;2023-05-10T08:27:11;94988.03;;;9.64;100.00
18790;BME280;9523;42.650;23.386;2023-05-10T08:29:38;94976.50;;;9.55;100.00
18790;BME280;9523;42.650;23.386;2023-05-10T08:32:05;94983.56;;;9.60;100.00
18790;BME280;9523;42.650;23.386;2023-05-10T08:34:33;94980.13;;;9.64;100.00
18790;BME280;9523;42.650;23.386;2023-05-10T08:37:00;94984.88;;;9.62;100.00
18790;BME280;9523;42.650;23.386;2023-05-10T08:39:27;94982.41;;;9.76;100.00
18790;BME280;9523;42.650;23.386;2023-05-10T08:41:54;94981.34;;;9.82;100.00
18790;BME280;9523;42.650;23.386;2023-05-10T08:44:24;94994.50;;;9.87;100.00
18790;BME280;9523;42.650;23.386;2023-05-10T08:46:53;94997.41;;;9.85;100.00
18790;BME280;9523;42.650;23.386;2023-05-10T08:49:21;94988.97;;;9.83;100.00
18790;BME280;9523;42.650;23.386;2023-05-10T08:51:53;94986.13;;;9.75;100.00
18790;BME280;9523;42.650;23.386;2023-05-10T08:54:21;94974.28;;;9.72;100.00
18790;BME280;9523;42.650;23.386;2023-05-10T08:56:48;94987.44;;;9.77;100.00
18790;BME280;9523;42.650;23.386;2023-05-10T08:59:15;94981.13;;;9.73;100.00
18790;BME280;9523;42.650;23.386;2023-05-10T09:01:43;94991.66;;;9.78;100.00
18790;BME280;9523;42.650;23.386;2023-05-10T09:04:11;94986.91;;;9.75;100.00
18790;BME280;9523;42.650;23.386;2023-05-10T09:06:38;94992.88;;;9.91;100.00
18790;BME280;9523;42.650;23.386;2023-05-10T09:09:06;94985.44;;;9.98;100.00
18790;BME280;9523;42.650;23.386;2023-05-10T09:11:33;94989.63;;;10.04;100.00
18790;BME280;9523;42.650;23.386;2023-05-10T09:14:01;94990.16;;;10.01;100.00
18790;BME280;9523;42.650;23.386;2023-05-10T09:16:28;94994.53;;;10.21;100.00
18790;BME280;9523;42.650;23.386;2023-05-10T09:18:55;94987.91;;;10.23;100.00
18790;BME280;9523;42.650;23.386;2023-05-10T09:21:24;94983.72;;;10.22;100.00
18790;BME280;9523;42.650;23.386;2023-05-10T09:23:52;94988.31;;;10.41;100.00
18790;BME280;9523;42.650;23.386;2023-05-10T09:26:23;94978.63;;;10.60;100.00
18790;BME280;9523;42.650;23.386;2023-05-10T09:28:52;94983.09;;;10.64;100.00
18790;BME280;9523;42.650;23.386;2023-05-10T09:31:19;94982.50;;;10.67;100.00
18790;BME280;9523;42.650;23.386;2023-05-10T09:33:47;94963.91;;;10.82;100.00
18790;BME280;9523;42.650;23.386;2023-05-10T09:36:14;94976.88;;;11.03;100.00
18790;BME280;9523;42.650;23.386;2023-05-10T09:38:45;94970.88;;;11.21;100.00
18790;BME280;9523;42.650;23.386;2023-05-10T09:41:16;94973.31;;;11.36;100.00
18790;BME280;9523;42.650;23.386;2023-05-10T09:43:45;94977.25;;;11.39;100.00
18790;BME280;9523;42.650;23.386;2023-05-10T09:46:12;94972.75;;;11.39;100.00
18790;BME280;9523;42.650;23.386;2023-05-10T09:48:42;94981.25;;;11.36;100.00
18790;BME280;9523;42.650;23.386;2023-05-10T09:51:09;94963.03;;;11.11;100.00
18790;BME280;9523;42.650;23.386;2023-05-10T09:53:36;94972.38;;;11.27;100.00
18790;BME280;9523;42.650;23.386;2023-05-10T09:56:04;94979.03;;;11.43;100.00
18790;BME280;9523;42.650;23.386;2023-05-10T09:58:30;94963.94;;;11.25;100.00
18790;BME280;9523;42.650;23.386;2023-05-10T10:00:59;94962.59;;;11.27;100.00
18790;BME280;9523;42.650;23.386;2023-05-10T10:03:26;94972.56;;;11.12;100.00
18790;BME280;9523;42.650;23.386;2023-05-10T10:05:52;94963.78;;;10.93;100.00
18790;BME280;9523;42.650;23.386;2023-05-10T10:08:21;94952.22;;;10.89;100.00
18790;BME280;9523;42.650;23.386;2023-05-10T10:10:48;94952.78;;;10.86;100.00
18790;BME280;9523;42.650;23.386;2023-05-10T10:13:15;94956.72;;;10.88;100.00
18790;BME280;9523;42.650;23.386;2023-05-10T10:15:42;94957.69;;;10.97;100.00
18790;BME280;9523;42.650;23.386;2023-05-10T10:18:13;94950.59;;;10.93;100.00
18790;BME280;9523;42.650;23.386;2023-05-10T10:20:41;94957.53;;;11.07;100.00
18790;BME280;9523;42.650;23.386;2023-05-10T10:23:08;94946.50;;;11.05;100.00
18790;BME280;9523;42.650;23.386;2023-05-10T10:25:35;94951.56;;;11.02;100.00
18790;BME280;9523;42.650;23.386;2023-05-10T10:28:19;94953.00;;;11.13;100.00
18790;BME280;9523;42.650;23.386;2023-05-10T10:30:50;94950.31;;;11.18;100.00
18790;BME280;9523;42.650;23.386;2023-05-10T10:33:40;94953.88;;;11.27;100.00
18790;BME280;9523;42.650;23.386;2023-05-10T10:36:12;94955.59;;;11.18;100.00
18790;BME280;9523;42.650;23.386;2023-05-10T10:38:55;94942.94;;;11.15;100.00
18790;BME280;9523;42.650;23.386;2023-05-10T10:41:29;94950.31;;;11.18;100.00
18790;BME280;9523;42.650;23.386;2023-05-10T10:44:24;94953.50;;;11.15;100.00
18790;BME280;9523;42.650;23.386;2023-05-10T10:47:04;94952.44;;;11.16;100.00
18790;BME280;9523;42.650;23.386;2023-05-10T10:49:38;94946.94;;;11.12;100.00
18790;BME280;9523;42.650;23.386;2023-05-10T10:52:17;94944.53;;;11.35;100.00
18790;BME280;9523;42.650;23.386;2023-05-10T10:54:52;94949.91;;;11.48;100.00
18790;BME280;9523;42.650;23.386;2023-05-10T10:57:20;94934.06;;;11.29;100.00
18790;BME280;9523;42.650;23.386;2023-05-10T10:59:48;94958.13;;;11.47;100.00
18790;BME280;9523;42.650;23.386;2023-05-10T11:02:34;94960.31;;;11.21;100.00
18790;BME280;9523;42.650;23.386;2023-05-10T11:05:33;94960.34;;;11.16;100.00
18790;BME280;9523;42.650;23.386;2023-05-10T11:08:06;94968.06;;;11.12;100.00
18790;BME280;9523;42.650;23.386;2023-05-10T11:10:34;94952.44;;;11.16;100.00
18790;BME280;9523;42.650;23.386;2023-05-10T11:13:02;94952.22;;;11.12;100.00
18790;BME280;9523;42.650;23.386;2023-05-10T11:15:29;94952.22;;;11.12;100.00
18790;BME280;9523;42.650;23.386;2023-05-10T11:17:57;94947.09;;;11.21;100.00
18790;BME280;9523;42.650;23.386;2023-05-10T11:20:28;94951.47;;;11.30;100.00
18790;BME280;9523;42.650;23.386;2023-05-10T11:23:10;94947.03;;;11.26;100.00
18790;BME280;9523;42.650;23.386;2023-05-10T11:25:41;94948.69;;;11.22;100.00
18790;BME280;9523;42.650;23.386;2023-05-10T11:28:09;94959.63;;;11.34;100.00
18790;BME280;9523;42.650;23.386;2023-05-10T11:30:37;94958.19;;;11.42;100.00
18790;BME280;9523;42.650;23.386;2023-05-10T11:33:05;94961.06;;;11.45;100.00
18790;BME280;9523;42.650;23.386;2023-05-10T11:35:38;94935.50;;;11.41;100.00
18790;BME280;9523;42.650;23.386;2023-05-10T11:38:06;94960.38;;;11.58;100.00
18790;BME280;9523;42.650;23.386;2023-05-10T11:40:33;94964.72;;;11.68;100.00
18790;BME280;9523;42.650;23.386;2023-05-10T11:43:01;94937.75;;;11.47;100.00
18790;BME280;9523;42.650;23.386;2023-05-10T11:45:28;94950.13;;;11.52;100.00
18790;BME280;9523;42.650;23.386;2023-05-10T11:47:57;94950.34;;;11.55;100.00
18790;BME280;9523;42.650;23.386;2023-05-10T11:50:24;94932.84;;;11.41;100.00
18790;BME280;9523;42.650;23.386;2023-05-10T11:52:54;94954.19;;;11.44;100.00
18790;BME280;9523;42.650;23.386;2023-05-10T11:55:22;94957.25;;;11.32;100.00
18790;BME280;9523;42.650;23.386;2023-05-10T11:57:52;94945.47;;;11.25;100.00
18790;BME280;9523;42.650;23.386;2023-05-10T12:00:20;94951.31;;;11.22;100.00
18790;BME280;9523;42.650;23.386;2023-05-10T12:02:47;94950.81;;;11.20;100.00
18790;BME280;9523;42.650;23.386;2023-05-10T12:05:15;94950.84;;;11.15;100.00
18790;BME280;9523;42.650;23.386;2023-05-10T12:07:42;94944.34;;;11.07;100.00
18790;BME280;9523;42.650;23.386;2023-05-10T12:10:12;94943.94;;;10.95;100.00
18790;BME280;9523;42.650;23.386;2023-05-10T12:12:41;94939.63;;;11.04;100.00
18790;BME280;9523;42.650;23.386;2023-05-10T12:15:12;94939.91;;;11.03;100.00
18790;BME280;9523;42.650;23.386;2023-05-10T12:17:43;94933.72;;;11.12;100.00
18790;BME280;9523;42.650;23.386;2023-05-10T12:20:15;94934.47;;;11.18;100.00
18790;BME280;9523;42.650;23.386;2023-05-10T12:22:44;94929.41;;;11.40;100.00
18790;BME280;9523;42.650;23.386;2023-05-10T12:25:12;94931.00;;;11.41;100.00
18790;BME280;9523;42.650;23.386;2023-05-10T12:27:39;94933.56;;;11.46;100.00
18790;BME280;9523;42.650;23.386;2023-05-10T12:30:07;94923.00;;;11.65;100.00
18790;BME280;9523;42.650;23.386;2023-05-10T12:32:38;94930.47;;;11.82;100.00
18790;BME280;9523;42.650;23.386;2023-05-10T12:35:07;94925.59;;;11.89;100.00
18790;BME280;9523;42.650;23.386;2023-05-10T12:37:37;94919.47;;;12.07;100.00
18790;BME280;9523;42.650;23.386;2023-05-10T12:40:06;94921.75;;;12.13;100.00
18790;BME280;9523;42.650;23.386;2023-05-10T12:42:36;94927.72;;;12.05;100.00
18790;BME280;9523;42.650;23.386;2023-05-10T12:45:04;94890.88;;;11.76;100.00
18790;BME280;9523;42.650;23.386;2023-05-10T12:47:32;94923.00;;;11.84;100.00
18790;BME280;9523;42.650;23.386;2023-05-10T12:50:00;94913.50;;;11.83;100.00
18790;BME280;9523;42.650;23.386;2023-05-10T12:52:28;94915.16;;;11.78;100.00
18790;BME280;9523;42.650;23.386;2023-05-10T12:54:55;94921.06;;;11.70;100.00
18790;BME280;9523;42.650;23.386;2023-05-10T12:57:22;94917.88;;;11.73;100.00
18790;BME280;9523;42.650;23.386;2023-05-10T12:59:50;94903.66;;;11.69;100.00
18790;BME280;9523;42.650;23.386;2023-05-10T13:02:17;94898.34;;;11.69;100.00
18790;BME280;9523;42.650;23.386;2023-05-10T13:04:45;94899.38;;;11.73;100.00
18790;BME280;9523;42.650;23.386;2023-05-10T13:07:12;94896.16;;;11.76;100.00